createdAt,value
2023-02-16T00:01:46.119Z,3.81
2023-02-16T00:04:23.235Z,3.81
2023-02-16T00:06:50.380Z,3.73
2023-02-16T00:09:17.910Z,3.83
2023-02-16T00:12:03.774Z,3.83
2023-02-16T00:14:30.390Z,3.76
2023-02-16T00:16:58.602Z,3.74
2023-02-16T00:19:40.428Z,3.71
2023-02-16T00:22:08.104Z,3.64
2023-02-16T00:24:35.108Z,3.59
2023-02-16T00:27:01.851Z,3.52
2023-02-16T00:29:29.993Z,3.69
2023-02-16T00:31:58.675Z,3.66
2023-02-16T00:34:36.972Z,3.57
2023-02-16T00:37:09.275Z,3.61
2023-02-16T00:39:36.920Z,3.47
2023-02-16T00:42:06.431Z,3.45
2023-02-16T00:44:33.000Z,3.50
2023-02-16T00:47:35.425Z,3.53
2023-02-16T00:50:01.930Z,3.48
2023-02-16T00:52:37.182Z,3.51
2023-02-16T00:55:07.736Z,3.46
2023-02-16T00:57:38.890Z,3.37
2023-02-16T01:00:30.218Z,3.41
2023-02-16T01:03:00.676Z,3.40
2023-02-16T01:05:27.248Z,3.49
2023-02-16T01:08:12.087Z,3.54
2023-02-16T01:10:57.913Z,3.52
2023-02-16T01:13:27.832Z,3.46
2023-02-16T01:15:54.706Z,3.46
2023-02-16T01:18:22.056Z,3.40
2023-02-16T01:20:48.692Z,3.39
2023-02-16T01:23:15.263Z,3.34
2023-02-16T01:25:42.150Z,3.20
2023-02-16T01:28:21.532Z,3.20
2023-02-16T01:30:49.518Z,3.26
2023-02-16T01:33:16.193Z,3.28
2023-02-16T01:35:42.802Z,3.06
2023-02-16T01:38:18.739Z,2.98
2023-02-16T01:40:55.264Z,3.06
2023-02-16T01:43:26.632Z,3.05
2023-02-16T01:46:18.293Z,3.06
2023-02-16T01:48:44.772Z,2.95
2023-02-16T01:51:34.908Z,2.96
2023-02-16T01:54:27.601Z,2.93
2023-02-16T01:57:05.988Z,2.89
2023-02-16T02:00:00.405Z,2.89
2023-02-16T02:02:34.737Z,2.82
2023-02-16T02:05:35.878Z,2.86
2023-02-16T02:08:21.741Z,2.85
2023-02-16T02:11:03.590Z,2.87
2023-02-16T02:13:41.074Z,2.89
2023-02-16T02:16:08.675Z,2.85
2023-02-16T02:18:35.206Z,2.76
2023-02-16T02:21:26.250Z,2.83
2023-02-16T02:24:10.891Z,2.68
2023-02-16T02:27:04.792Z,2.66
2023-02-16T02:29:56.142Z,2.59
2023-02-16T02:32:30.342Z,2.72
2023-02-16T02:35:12.099Z,2.64
2023-02-16T02:38:01.150Z,2.83
2023-02-16T02:40:37.358Z,2.60
2023-02-16T02:43:17.723Z,2.60
2023-02-16T02:45:49.688Z,2.60
2023-02-16T02:48:16.203Z,2.57
2023-02-16T02:51:17.169Z,2.61
2023-02-16T02:54:13.390Z,2.47
2023-02-16T02:57:04.064Z,2.45
2023-02-16T02:59:51.890Z,2.49
2023-02-16T03:02:21.607Z,2.51
2023-02-16T03:04:48.938Z,2.41
2023-02-16T03:07:16.931Z,2.49
2023-02-16T03:09:44.522Z,2.41
2023-02-16T03:12:31.929Z,2.39
2023-02-16T03:15:01.471Z,2.39
2023-02-16T03:17:53.788Z,2.38
2023-02-16T03:20:39.133Z,2.41
2023-02-16T03:23:26.302Z,2.40
2023-02-16T03:26:11.716Z,2.30
2023-02-16T03:29:01.146Z,2.22
2023-02-16T03:31:35.158Z,2.28
2023-02-16T03:34:02.760Z,2.14
2023-02-16T03:36:33.247Z,2.10
2023-02-16T03:39:00.584Z,2.03
2023-02-16T03:41:32.778Z,2.07
2023-02-16T03:43:59.341Z,2.00
2023-02-16T03:46:25.989Z,2.09
2023-02-16T03:48:52.484Z,2.06
2023-02-16T03:51:19.022Z,1.92
2023-02-16T03:53:45.496Z,1.94
2023-02-16T03:56:12.028Z,1.89
2023-02-16T03:58:38.671Z,1.90
2023-02-16T04:01:05.681Z,1.76
2023-02-16T04:03:32.333Z,1.81
2023-02-16T04:05:58.785Z,1.71
2023-02-16T04:08:25.356Z,1.76
2023-02-16T04:10:51.844Z,1.81
2023-02-16T04:13:18.319Z,1.79
2023-02-16T04:15:44.827Z,1.83
2023-02-16T04:18:11.385Z,1.63
2023-02-16T04:20:37.953Z,1.75
2023-02-16T04:23:04.764Z,1.71
2023-02-16T04:25:31.584Z,1.52
2023-02-16T04:27:58.265Z,1.54
2023-02-16T04:30:28.293Z,1.53
2023-02-16T04:32:55.227Z,1.50
2023-02-16T04:35:22.580Z,1.61
2023-02-16T04:37:49.100Z,1.76
2023-02-16T04:40:17.908Z,1.79
2023-02-16T04:42:45.041Z,1.65
2023-02-16T04:45:12.686Z,1.76
2023-02-16T04:47:39.448Z,1.58
2023-02-16T04:50:06.814Z,1.52
2023-02-16T04:52:34.355Z,1.55
2023-02-16T04:55:00.922Z,1.60
2023-02-16T04:57:27.797Z,1.46
2023-02-16T04:59:54.382Z,1.52
2023-02-16T05:02:20.847Z,1.60
2023-02-16T05:04:47.427Z,1.54
2023-02-16T05:07:13.969Z,1.51
2023-02-16T05:09:40.556Z,1.49
2023-02-16T05:12:25.856Z,1.42
2023-02-16T05:14:52.392Z,1.47
2023-02-16T05:17:25.468Z,1.43
2023-02-16T05:19:54.970Z,1.56
2023-02-16T05:22:21.771Z,1.45
2023-02-16T05:24:48.396Z,1.49
2023-02-16T05:27:21.879Z,1.53
2023-02-16T05:29:48.726Z,1.49
2023-02-16T05:32:15.704Z,1.31
2023-02-16T05:34:44.405Z,1.25
2023-02-16T05:37:11.682Z,1.23
2023-02-16T05:39:38.293Z,1.14
2023-02-16T05:42:05.025Z,1.12
2023-02-16T05:44:31.722Z,1.02
2023-02-16T05:46:58.310Z,1.07
2023-02-16T05:49:25.484Z,1.17
2023-02-16T05:51:52.207Z,1.15
2023-02-16T05:54:18.653Z,1.25
2023-02-16T05:56:47.170Z,1.20
2023-02-16T05:59:15.009Z,1.12
2023-02-16T06:01:41.897Z,1.06
2023-02-16T06:04:10.206Z,1.18
2023-02-16T06:06:38.059Z,1.23
2023-02-16T06:09:07.076Z,1.17
2023-02-16T06:11:36.399Z,1.06
2023-02-16T06:14:11.666Z,1.05
2023-02-16T06:16:40.706Z,0.93
2023-02-16T06:19:07.625Z,0.96
2023-02-16T06:21:35.711Z,1.03
2023-02-16T06:24:02.368Z,1.01
2023-02-16T06:26:29.203Z,1.00
2023-02-16T06:28:56.074Z,0.97
2023-02-16T06:31:23.718Z,1.01
2023-02-16T06:33:50.625Z,1.02
2023-02-16T06:36:17.857Z,0.97
2023-02-16T06:38:45.525Z,0.95
2023-02-16T06:41:12.460Z,0.96
2023-02-16T06:43:39.066Z,0.90
2023-02-16T06:46:05.556Z,0.80
2023-02-16T06:48:32.050Z,0.81
2023-02-16T06:50:58.592Z,0.85
2023-02-16T06:53:25.495Z,0.90
2023-02-16T06:55:52.210Z,0.94
2023-02-16T06:58:18.900Z,0.86
2023-02-16T07:00:45.447Z,0.84
2023-02-16T07:03:12.156Z,0.88
2023-02-16T07:05:38.727Z,0.93
2023-02-16T07:08:05.326Z,0.76
2023-02-16T07:10:47.470Z,0.91
2023-02-16T07:13:16.244Z,0.93
2023-02-16T07:15:42.756Z,0.94
2023-02-16T07:18:09.454Z,1.04
2023-02-16T07:20:36.000Z,1.08
2023-02-16T07:23:02.452Z,1.18
2023-02-16T07:25:29.011Z,1.18
2023-02-16T07:27:55.462Z,1.43
2023-02-16T07:30:22.534Z,1.56
2023-02-16T07:32:49.390Z,1.64
2023-02-16T07:35:15.938Z,1.71
2023-02-16T07:37:42.432Z,2.24
2023-02-16T07:40:09.461Z,2.53
2023-02-16T07:42:36.067Z,2.71
2023-02-16T07:45:02.628Z,3.16
2023-02-16T07:47:29.137Z,3.30
2023-02-16T07:49:55.584Z,3.80
2023-02-16T07:52:22.209Z,3.89
2023-02-16T07:54:48.724Z,4.05
2023-02-16T07:57:15.250Z,4.50
2023-02-16T07:59:42.168Z,4.57
2023-02-16T08:02:15.963Z,4.79
2023-02-16T08:04:43.690Z,4.84
2023-02-16T08:07:12.977Z,5.57
2023-02-16T08:09:40.723Z,5.70
2023-02-16T08:12:15.449Z,5.99
2023-02-16T08:14:42.284Z,6.24
2023-02-16T08:17:09.545Z,6.29
2023-02-16T08:19:37.330Z,6.44
2023-02-16T08:22:04.861Z,6.21
2023-02-16T08:24:31.450Z,6.89
2023-02-16T08:26:57.921Z,7.40
2023-02-16T08:29:24.488Z,7.36
2023-02-16T08:31:52.172Z,8.11
2023-02-16T08:34:20.410Z,8.19
2023-02-16T08:36:52.960Z,9.00
2023-02-16T08:39:21.580Z,9.35
2023-02-16T08:41:49.793Z,9.31
2023-02-16T08:44:18.049Z,8.67
2023-02-16T08:46:47.539Z,9.05
2023-02-16T08:49:17.443Z,9.30
2023-02-16T08:51:47.175Z,9.55
2023-02-16T08:54:29.951Z,10.06
2023-02-16T08:56:58.966Z,10.42
2023-02-16T08:59:28.432Z,10.09
2023-02-16T09:01:56.133Z,10.18
2023-02-16T09:04:24.441Z,10.67
2023-02-16T09:06:52.328Z,10.68
2023-02-16T09:09:19.852Z,11.10
2023-02-16T09:11:46.847Z,10.61
2023-02-16T09:14:13.621Z,11.35
2023-02-16T09:16:45.424Z,11.74
2023-02-16T09:19:14.891Z,11.90
2023-02-16T09:21:42.100Z,12.21
2023-02-16T09:24:09.120Z,12.78
2023-02-16T09:26:38.541Z,12.39
2023-02-16T09:29:07.086Z,12.42
2023-02-16T09:31:37.191Z,12.38
2023-02-16T09:34:14.140Z,13.02
2023-02-16T09:36:40.697Z,12.75
2023-02-16T09:39:08.134Z,12.60
2023-02-16T09:41:40.726Z,12.56
2023-02-16T09:44:19.172Z,13.20
2023-02-16T09:46:47.046Z,13.68
2023-02-16T09:49:25.156Z,14.11
2023-02-16T09:52:19.491Z,14.75
2023-02-16T09:54:53.227Z,14.57
2023-02-16T09:57:58.379Z,13.61
2023-02-16T10:00:29.989Z,14.85
2023-02-16T10:03:05.551Z,14.96
2023-02-16T10:05:51.912Z,15.32
2023-02-16T10:08:27.533Z,15.80
2023-02-16T10:11:40.250Z,15.29
2023-02-16T10:14:46.892Z,15.38
2023-02-16T10:17:32.321Z,14.97
2023-02-16T10:20:07.450Z,15.26
2023-02-16T10:22:40.687Z,15.52
2023-02-16T10:25:17.007Z,15.90
2023-02-16T10:27:46.992Z,16.07
2023-02-16T10:30:19.596Z,16.73
2023-02-16T10:32:54.713Z,16.46
2023-02-16T10:35:41.087Z,17.39
2023-02-16T10:38:18.210Z,17.55
2023-02-16T10:41:22.089Z,17.41
2023-02-16T10:44:01.599Z,17.80
2023-02-16T10:46:36.800Z,17.29
2023-02-16T10:49:03.422Z,17.69
2023-02-16T10:51:37.636Z,18.29
2023-02-16T10:54:08.829Z,18.08
2023-02-16T10:56:44.167Z,18.29
2023-02-16T10:59:22.890Z,18.35
2023-02-16T11:01:54.729Z,18.63
2023-02-16T11:04:35.692Z,18.82
2023-02-16T11:07:11.698Z,18.77
2023-02-16T11:09:40.765Z,19.18
2023-02-16T11:12:35.302Z,18.73
2023-02-16T11:15:04.736Z,19.33
2023-02-16T11:17:47.146Z,19.05
2023-02-16T11:20:34.290Z,19.47
2023-02-16T11:23:13.050Z,19.57
2023-02-16T11:25:40.027Z,19.98
2023-02-16T11:28:06.991Z,20.39
2023-02-16T11:30:36.189Z,19.83
2023-02-16T11:33:05.562Z,20.27
2023-02-16T11:35:40.983Z,20.09
2023-02-16T11:38:28.015Z,20.63
2023-02-16T11:40:56.088Z,20.18
2023-02-16T11:43:28.361Z,20.89
2023-02-16T11:46:17.684Z,21.04
2023-02-16T11:48:45.617Z,20.78
2023-02-16T11:51:15.300Z,20.72
2023-02-16T11:53:43.628Z,20.12
2023-02-16T11:56:23.462Z,21.14
2023-02-16T11:59:22.427Z,21.47
2023-02-16T12:02:00.560Z,21.68
2023-02-16T12:04:57.826Z,21.53
2023-02-16T12:07:46.902Z,21.58
2023-02-16T12:10:20.914Z,21.68
2023-02-16T12:13:18.375Z,21.61
2023-02-16T12:16:05.182Z,22.08
2023-02-16T12:18:45.346Z,22.30
2023-02-16T12:21:32.927Z,22.65
2023-02-16T12:24:17.937Z,22.88
2023-02-16T12:26:52.058Z,23.32
2023-02-16T12:29:45.890Z,23.65
2023-02-16T12:32:30.137Z,22.83
2023-02-16T12:35:21.822Z,22.23
2023-02-16T12:37:54.255Z,22.39
2023-02-16T12:40:26.645Z,22.99
2023-02-16T12:42:53.142Z,23.20
2023-02-16T12:45:23.822Z,22.36
2023-02-16T12:47:57.780Z,21.88
2023-02-16T12:50:31.117Z,22.55
2023-02-16T12:53:03.338Z,21.72
2023-02-16T12:55:29.779Z,21.34
2023-02-16T12:58:14.935Z,21.76
2023-02-16T13:00:48.636Z,21.75
2023-02-16T13:03:41.456Z,21.38
2023-02-16T13:06:08.330Z,20.77
2023-02-16T13:09:16.356Z,21.61
2023-02-16T13:11:42.848Z,21.33
2023-02-16T13:14:18.587Z,20.71
2023-02-16T13:16:51.086Z,21.09
2023-02-16T13:19:18.508Z,21.01
2023-02-16T13:21:51.921Z,20.04
2023-02-16T13:24:24.619Z,20.79
2023-02-16T13:26:54.128Z,20.90
2023-02-16T13:30:04.374Z,21.13
2023-02-16T13:32:45.869Z,20.74
2023-02-16T13:35:31.096Z,20.83
2023-02-16T13:38:04.052Z,20.64
2023-02-16T13:40:52.174Z,20.38
2023-02-16T13:43:34.792Z,19.84
2023-02-16T13:46:08.359Z,19.88
2023-02-16T13:48:53.513Z,19.93
2023-02-16T13:51:23.328Z,20.10
2023-02-16T13:53:59.329Z,19.54
2023-02-16T13:56:29.415Z,18.97
2023-02-16T13:58:58.068Z,18.79
2023-02-16T14:01:42.953Z,18.86
2023-02-16T14:04:32.289Z,18.43
2023-02-16T14:07:07.966Z,18.46
2023-02-16T14:09:37.416Z,18.55
2023-02-16T14:12:14.240Z,18.87
2023-02-16T14:14:56.576Z,18.98
2023-02-16T14:17:27.463Z,18.67
2023-02-16T14:20:05.016Z,18.71
2023-02-16T14:22:45.652Z,18.22
2023-02-16T14:25:22.220Z,18.16
2023-02-16T14:28:03.782Z,18.18
2023-02-16T14:30:57.180Z,17.85
2023-02-16T14:33:45.369Z,17.62
2023-02-16T14:36:16.877Z,17.61
2023-02-16T14:38:51.882Z,17.42
2023-02-16T14:41:29.272Z,17.32
2023-02-16T14:44:25.702Z,17.40
2023-02-16T14:47:03.919Z,17.47
2023-02-16T14:50:06.927Z,17.40
2023-02-16T14:53:12.544Z,17.32
2023-02-16T14:56:01.413Z,17.23
2023-02-16T14:58:41.387Z,17.27
2023-02-16T15:01:14.056Z,17.14
2023-02-16T15:03:42.155Z,16.99
2023-02-16T15:06:18.697Z,16.91
2023-02-16T15:08:58.529Z,16.98
2023-02-16T15:11:56.690Z,16.88
2023-02-16T15:14:25.694Z,16.71
2023-02-16T15:16:53.935Z,16.71
2023-02-16T15:19:28.461Z,16.76
2023-02-16T15:22:19.005Z,16.68
2023-02-16T15:25:07.937Z,16.78
2023-02-16T15:27:34.384Z,16.67
2023-02-16T15:30:21.626Z,16.56
2023-02-16T15:33:14.108Z,16.41
2023-02-16T15:35:43.304Z,16.37
2023-02-16T15:38:31.858Z,16.25
2023-02-16T15:41:02.115Z,16.15
2023-02-16T15:43:36.030Z,16.04
2023-02-16T15:46:04.903Z,15.87
2023-02-16T15:48:33.635Z,15.81
2023-02-16T15:51:20.958Z,15.78
2023-02-16T15:54:19.766Z,15.62
2023-02-16T15:56:48.561Z,15.57
2023-02-16T15:59:39.507Z,15.46
2023-02-16T16:02:24.703Z,15.29
2023-02-16T16:04:57.465Z,15.20
2023-02-16T16:07:31.584Z,15.11
2023-02-16T16:10:00.194Z,14.99
2023-02-16T16:12:28.195Z,14.86
2023-02-16T16:15:00.510Z,14.87
2023-02-16T16:17:30.347Z,14.85
2023-02-16T16:20:35.913Z,14.84
2023-02-16T16:23:04.540Z,14.79
2023-02-16T16:25:34.111Z,14.70
2023-02-16T16:28:01.944Z,14.67
2023-02-16T16:30:32.391Z,14.66
2023-02-16T16:33:11.927Z,14.58
2023-02-16T16:35:44.506Z,14.47
2023-02-16T16:38:29.252Z,14.45
2023-02-16T16:40:58.516Z,14.44
2023-02-16T16:43:34.855Z,14.26
2023-02-16T16:46:07.561Z,14.19
2023-02-16T16:48:36.431Z,14.18
2023-02-16T16:51:11.950Z,14.15
2023-02-16T16:53:51.575Z,14.24
2023-02-16T16:56:18.765Z,14.25
2023-02-16T16:58:50.614Z,14.15
2023-02-16T17:01:18.327Z,14.04
2023-02-16T17:03:44.956Z,14.06
2023-02-16T17:06:11.901Z,13.84
2023-02-16T17:08:38.424Z,13.80
2023-02-16T17:11:05.264Z,13.83
2023-02-16T17:13:31.775Z,13.88
2023-02-16T17:16:07.036Z,13.84
2023-02-16T17:18:34.531Z,13.86
2023-02-16T17:21:01.056Z,13.87
2023-02-16T17:23:27.597Z,13.77
2023-02-16T17:25:54.077Z,13.63
2023-02-16T17:28:21.153Z,13.51
2023-02-16T17:30:47.995Z,13.42
2023-02-16T17:33:14.580Z,13.26
2023-02-16T17:35:43.505Z,13.16
2023-02-16T17:38:17.980Z,13.20
2023-02-16T17:40:47.940Z,12.98
2023-02-16T17:43:16.023Z,12.69
2023-02-16T17:45:42.934Z,12.55
2023-02-16T17:48:20.994Z,12.42
2023-02-16T17:50:49.263Z,12.61
2023-02-16T17:53:17.194Z,12.54
2023-02-16T17:55:45.060Z,12.38
2023-02-16T17:58:11.940Z,12.31
2023-02-16T18:00:39.096Z,12.38
2023-02-16T18:03:06.063Z,12.27
2023-02-16T18:05:32.997Z,12.20
2023-02-16T18:07:59.548Z,12.07
2023-02-16T18:10:42.324Z,11.97
2023-02-16T18:13:11.596Z,11.97
2023-02-16T18:15:40.091Z,11.98
2023-02-16T18:18:07.938Z,12.10
2023-02-16T18:20:34.922Z,12.13
2023-02-16T18:23:01.430Z,12.25
2023-02-16T18:25:28.082Z,12.16
2023-02-16T18:27:54.552Z,12.07
2023-02-16T18:30:21.366Z,12.20
2023-02-16T18:32:47.843Z,12.26
2023-02-16T18:35:17.140Z,12.20
2023-02-16T18:37:45.305Z,12.16
2023-02-16T18:40:15.459Z,12.16
2023-02-16T18:42:42.293Z,12.17
2023-02-16T18:45:09.219Z,12.12
2023-02-16T18:47:36.547Z,11.98
2023-02-16T18:50:04.722Z,11.92
2023-02-16T18:52:31.261Z,11.86
2023-02-16T18:54:57.744Z,11.73
2023-02-16T18:57:24.309Z,11.57
2023-02-16T18:59:53.725Z,11.61
2023-02-16T19:02:20.220Z,11.74
2023-02-16T19:04:46.784Z,11.80
2023-02-16T19:07:13.340Z,11.83
2023-02-16T19:09:39.909Z,11.84
2023-02-16T19:12:06.555Z,11.78
2023-02-16T19:14:33.161Z,11.83
2023-02-16T19:16:59.766Z,11.75
2023-02-16T19:19:26.262Z,11.62
2023-02-16T19:21:52.742Z,11.50
2023-02-16T19:24:19.300Z,11.33
2023-02-16T19:26:45.795Z,11.25
2023-02-16T19:29:12.843Z,11.15
2023-02-16T19:31:39.527Z,11.15
2023-02-16T19:34:06.214Z,11.12
2023-02-16T19:36:34.137Z,11.18
2023-02-16T19:39:02.203Z,11.24
2023-02-16T19:41:31.898Z,11.20
2023-02-16T19:43:58.460Z,11.18
2023-02-16T19:46:26.200Z,11.16
2023-02-16T19:48:55.306Z,11.15
2023-02-16T19:51:22.143Z,11.07
2023-02-16T19:53:49.232Z,11.04
2023-02-16T19:56:19.044Z,11.12
2023-02-16T19:58:46.052Z,11.06
2023-02-16T20:01:17.837Z,10.97
2023-02-16T20:03:44.976Z,10.92
2023-02-16T20:06:21.249Z,10.96
2023-02-16T20:08:49.715Z,11.03
2023-02-16T20:11:19.046Z,10.98
2023-02-16T20:13:46.387Z,10.88
2023-02-16T20:16:13.412Z,10.90
2023-02-16T20:18:40.457Z,11.04
2023-02-16T20:21:19.042Z,10.88
2023-02-16T20:23:47.546Z,10.78
2023-02-16T20:26:21.208Z,10.84
2023-02-16T20:28:49.149Z,10.89
2023-02-16T20:31:22.403Z,10.79
2023-02-16T20:33:49.590Z,10.84
2023-02-16T20:36:16.895Z,10.89
2023-02-16T20:38:44.106Z,10.96
2023-02-16T20:41:11.052Z,10.96
2023-02-16T20:43:38.148Z,10.94
2023-02-16T20:46:06.323Z,11.03
2023-02-16T20:48:34.201Z,10.78
2023-02-16T20:51:03.706Z,10.74
2023-02-16T20:53:30.498Z,10.80
2023-02-16T20:56:08.286Z,10.70
2023-02-16T20:58:36.757Z,10.55
2023-02-16T21:01:10.080Z,10.61
2023-02-16T21:03:36.549Z,10.53
2023-02-16T21:06:03.901Z,10.65
2023-02-16T21:08:30.587Z,10.61
2023-02-16T21:10:57.093Z,10.60
2023-02-16T21:13:23.634Z,10.32
2023-02-16T21:15:50.216Z,10.54
2023-02-16T21:18:16.861Z,10.46
2023-02-16T21:20:43.950Z,10.43
2023-02-16T21:23:10.572Z,10.33
2023-02-16T21:25:38.107Z,10.07
2023-02-16T21:28:04.653Z,10.09
2023-02-16T21:30:31.363Z,10.14
2023-02-16T21:32:57.900Z,10.12
2023-02-16T21:35:24.395Z,9.97
2023-02-16T21:37:50.846Z,10.02
2023-02-16T21:40:36.101Z,10.16
2023-02-16T21:43:02.717Z,10.05
2023-02-16T21:45:29.225Z,10.00
2023-02-16T21:48:14.189Z,10.09
2023-02-16T21:50:41.522Z,9.99
2023-02-16T21:53:09.136Z,9.97
2023-02-16T21:55:55.510Z,10.08
2023-02-16T21:58:24.527Z,10.02
2023-02-16T22:00:51.908Z,10.05
2023-02-16T22:03:19.098Z,9.92
2023-02-16T22:05:45.743Z,9.92
2023-02-16T22:08:14.440Z,9.80
2023-02-16T22:10:41.229Z,9.90
2023-02-16T22:13:07.835Z,9.96
2023-02-16T22:15:38.123Z,9.86
2023-02-16T22:18:05.922Z,9.72
2023-02-16T22:20:32.906Z,9.83
2023-02-16T22:22:59.368Z,9.82
2023-02-16T22:25:26.007Z,9.71
2023-02-16T22:27:52.602Z,9.73
2023-02-16T22:30:19.402Z,9.66
2023-02-16T22:32:45.937Z,9.62
2023-02-16T22:35:12.783Z,9.55
2023-02-16T22:37:39.301Z,9.60
2023-02-16T22:40:06.508Z,9.42
2023-02-16T22:42:33.026Z,9.49
2023-02-16T22:44:59.466Z,9.38
2023-02-16T22:47:25.991Z,9.37
2023-02-16T22:49:52.427Z,9.41
2023-02-16T22:52:18.939Z,9.32
2023-02-16T22:54:45.466Z,9.36
2023-02-16T22:57:12.001Z,9.31
2023-02-16T22:59:38.516Z,9.40
2023-02-16T23:02:05.012Z,9.37
2023-02-16T23:04:31.537Z,9.37
2023-02-16T23:06:58.094Z,9.48
2023-02-16T23:09:24.607Z,9.50
2023-02-16T23:11:51.452Z,9.50
2023-02-16T23:14:19.442Z,9.38
2023-02-16T23:16:49.415Z,9.41
2023-02-16T23:19:19.519Z,9.46
2023-02-16T23:21:47.874Z,9.47
2023-02-16T23:24:17.340Z,9.57
2023-02-16T23:26:43.893Z,9.51
2023-02-16T23:29:11.124Z,9.46
2023-02-16T23:31:39.468Z,9.44
2023-02-16T23:34:07.524Z,9.40
2023-02-16T23:36:36.209Z,9.53
2023-02-16T23:39:05.026Z,9.66
2023-02-16T23:41:31.546Z,9.50
2023-02-16T23:44:00.655Z,9.50
2023-02-16T23:46:27.745Z,9.58
2023-02-16T23:48:54.364Z,9.52
2023-02-16T23:51:20.823Z,9.47
2023-02-16T23:53:47.412Z,9.46
2023-02-16T23:56:20.703Z,9.44
2023-02-16T23:58:48.321Z,9.32
